Wayne, Montana
Current Conditions -  °F | °C
As of 7:56 PM on Tuesday 21 Oct 2014 (Local Time) from KGFA Reporting Station
Overcast Overcast  
Wind Chill: 38°   Ceiling: 5000
Heat Index: 44°   Visibility: 10mi
Dew Point: 43°   Wind: 13mph
Humidity: 93%   Direction: 190°S
Pressure: 29.87"   Gusts: NA
Location:  47.3298°N, 110.893°W
Report Text: KGFA 220156Z AUTO 19011KT 10SM OVC050 07/06 A2987 RMK AO2 SLP130 P0001 T00690059
Loading
Personal Weather Stations






























Interactive Weather Map
Tropical Storm Tracking
New forecast layout! Learn more

10-Day Weather Forecast

Advertisements
Track Severe Weather on mobile